Time;durP1;ratioP1;P1;durP2;ratioP2;P2;SDS_P1;SDS_P2;PMS_P1;PMS_P2;Temp;Humidity;BMP_temperature;BMP_pressure;BME280_temperature;BME280_humidity;BME280_pressure;Samples;Min_cycle;Max_cycle;Signal;HPM_P1;HPM_P2
2023/06/06 00:00:28;;;;;;;3.85;3.50;;;19.30;99.90;;;;;;1908666;74;21813;-79
2023/06/06 00:03:21;;;;;;;3.90;3.58;;;19.50;99.90;;;;;;1917230;74;21134;-79
2023/06/06 00:08:53;;;;;;;3.45;3.05;;;19.30;99.90;;;;;;1954732;72;22142;-79
2023/06/06 00:14:24;;;;;;;9.03;3.58;;;19.10;99.90;;;;;;1931138;72;22298;-78
2023/06/06 00:17:17;;;;;;;4.97;3.80;;;19.00;99.90;;;;;;1899764;75;21566;-79
2023/06/06 00:20:10;;;;;;;5.17;3.87;;;18.90;99.90;;;;;;1893334;75;21098;-78
2023/06/06 00:23:01;;;;;;;6.92;3.70;;;18.90;99.90;;;;;;1897749;75;21086;-79
2023/06/06 00:25:53;;;;;;;4.97;3.70;;;18.90;99.90;;;;;;1877344;73;21106;-78
2023/06/06 00:28:45;;;;;;;5.08;3.98;;;18.80;99.90;;;;;;1889221;75;21597;-83
2023/06/06 00:34:19;;;;;;;6.47;3.72;;;18.80;99.90;;;;;;1955080;72;23088;-81
2023/06/06 00:39:51;;;;;;;4.67;3.55;;;18.80;99.90;;;;;;1944708;72;22126;-82
2023/06/06 00:42:42;;;;;;;4.75;3.72;;;18.70;99.90;;;;;;1893818;74;21172;-81
2023/06/06 00:45:34;;;;;;;4.87;3.58;;;18.80;99.90;;;;;;1906586;75;21110;-82
2023/06/06 00:48:25;;;;;;;5.53;3.90;;;18.70;99.90;;;;;;1881384;74;21129;-82
2023/06/06 00:51:17;;;;;;;5.15;3.62;;;18.80;99.90;;;;;;1902812;75;21135;-83
2023/06/06 00:54:12;;;;;;;4.95;4.45;;;18.70;99.90;;;;;;1885490;75;21247;-82
2023/06/06 00:57:07;;;;;;;5.85;4.70;;;18.70;99.90;;;;;;1887531;75;21114;-82
2023/06/06 00:59:58;;;;;;;12.15;7.22;;;18.70;99.90;;;;;;1881802;75;21186;-82
2023/06/06 01:05:34;;;;;;;10.63;7.47;;;18.60;99.90;;;;;;1929450;72;28157;-82
2023/06/06 01:08:27;;;;;;;8.28;6.20;;;18.90;99.90;;;;;;1899882;75;21176;-82
2023/06/06 01:16:44;;;;;;;5.28;4.40;;;18.60;99.90;;;;;;1922321;72;22183;-82
2023/06/06 01:22:17;;;;;;;8.00;6.08;;;18.60;99.90;;;;;;1931899;72;22157;-82
2023/06/06 01:25:12;;;;;;;6.03;5.35;;;18.50;99.90;;;;;;1902839;75;21691;-82
2023/06/06 01:28:04;;;;;;;7.03;4.58;;;18.40;99.90;;;;;;1905793;75;21601;-82
2023/06/06 01:33:39;;;;;;;4.83;4.30;;;18.30;99.90;;;;;;1943789;72;22338;-82
2023/06/06 01:36:33;;;;;;;5.72;4.62;;;18.40;99.90;;;;;;1898599;75;21212;-82
2023/06/06 01:39:27;;;;;;;4.55;3.77;;;18.40;99.90;;;;;;1889509;75;21117;-82
2023/06/06 01:45:02;;;;;;;3.80;3.42;;;18.40;99.90;;;;;;1932810;72;22175;-82
2023/06/06 01:47:53;;;;;;;4.40;4.00;;;18.40;99.90;;;;;;1916408;73;21094;-82
2023/06/06 01:50:46;;;;;;;8.35;4.30;;;18.40;99.90;;;;;;1917304;73;21188;-82
2023/06/06 01:56:17;;;;;;;5.92;3.37;;;18.50;99.90;;;;;;1941075;72;22283;-82
2023/06/06 01:59:08;;;;;;;4.58;4.05;;;18.50;99.90;;;;;;1890193;75;21227;-79
2023/06/06 02:04:42;;;;;;;4.35;3.35;;;18.60;99.90;;;;;;1944089;72;22631;-79
2023/06/06 02:07:34;;;;;;;4.25;3.42;;;18.60;99.90;;;;;;1904764;75;21106;-79
2023/06/06 02:10:26;;;;;;;5.47;3.45;;;18.50;99.90;;;;;;1882010;75;21150;-78
2023/06/06 02:13:19;;;;;;;4.22;3.80;;;18.50;99.90;;;;;;1902909;75;21126;-79
2023/06/06 02:16:10;;;;;;;6.33;3.20;;;18.50;99.90;;;;;;1900331;75;21176;-78
2023/06/06 02:19:01;;;;;;;4.40;3.60;;;18.50;99.90;;;;;;1891149;75;21104;-78
2023/06/06 02:24:33;;;;;;;6.55;4.00;;;18.40;99.90;;;;;;1953765;72;22125;-78
2023/06/06 02:27:26;;;;;;;3.70;3.30;;;18.40;99.90;;;;;;1904986;74;21099;-79
2023/06/06 02:30:17;;;;;;;4.75;3.58;;;18.40;99.90;;;;;;1917983;74;21114;-79
2023/06/06 02:33:10;;;;;;;5.42;3.98;;;18.30;99.90;;;;;;1913403;74;21168;-79
2023/06/06 02:36:01;;;;;;;5.92;3.58;;;18.30;99.90;;;;;;1906576;74;21056;-78
2023/06/06 02:41:33;;;;;;;6.30;3.67;;;18.30;99.90;;;;;;1944816;72;22149;-78
2023/06/06 02:49:49;;;;;;;4.72;3.87;;;18.10;99.90;;;;;;1945573;72;22304;-79
2023/06/06 02:55:21;;;;;;;5.42;3.80;;;18.10;99.90;;;;;;1928568;72;22194;-79
2023/06/06 02:58:27;;;;;;;4.50;3.92;;;18.00;99.90;;;;;;1917910;73;21195;-79
2023/06/06 03:01:20;;;;;;;5.53;3.95;;;18.00;99.90;;;;;;1924617;73;21240;-78
2023/06/06 03:06:51;;;;;;;5.30;4.20;;;17.90;99.90;;;;;;1928393;72;22621;-79
2023/06/06 03:09:43;;;;;;;5.20;4.42;;;17.90;99.90;;;;;;1901547;73;21128;-78
2023/06/06 03:12:36;;;;;;;4.83;3.80;;;17.90;99.90;;;;;;1892955;75;21087;-79
2023/06/06 03:15:29;;;;;;;5.90;4.00;;;17.90;99.90;;;;;;1887619;75;21641;-78
2023/06/06 03:21:00;;;;;;;6.55;4.37;;;17.80;99.90;;;;;;1942099;72;22169;-78
2023/06/06 03:26:31;;;;;;;5.95;4.12;;;17.80;99.90;;;;;;1932202;72;22163;-79
2023/06/06 03:29:24;;;;;;;4.85;4.30;;;17.70;99.90;;;;;;1899003;75;21145;-79
2023/06/06 03:34:55;;;;;;;5.05;4.15;;;17.60;99.90;;;;;;1945826;72;22170;-79
2023/06/06 03:37:47;;;;;;;4.62;4.08;;;17.60;99.90;;;;;;1917563;73;21657;-79
2023/06/06 03:40:38;;;;;;;6.05;4.30;;;17.60;99.90;;;;;;1918435;73;21573;-80
2023/06/06 03:43:31;;;;;;;5.45;4.22;;;17.50;99.90;;;;;;1890076;75;21091;-79
2023/06/06 03:46:23;;;;;;;4.85;3.72;;;17.30;99.90;;;;;;1881143;76;21234;-80
2023/06/06 03:49:15;;;;;;;6.33;4.53;;;17.20;99.90;;;;;;1926189;73;21171;-80
2023/06/06 03:54:46;;;;;;;4.80;3.77;;;17.10;99.90;;;;;;1933954;72;22251;-79
2023/06/06 03:57:37;;;;;;;6.95;4.40;;;17.10;99.90;;;;;;1906457;74;21153;-78
2023/06/06 04:00:29;;;;;;;6.05;4.30;;;17.00;99.90;;;;;;1901991;75;21135;-79
2023/06/06 04:03:21;;;;;;;9.85;4.50;;;17.10;99.90;;;;;;1913556;74;21054;-80
2023/06/06 04:06:13;;;;;;;4.90;4.40;;;17.10;99.90;;;;;;1901879;75;21043;-79
2023/06/06 04:09:07;;;;;;;6.25;4.50;;;17.10;99.90;;;;;;1918556;73;21375;-79
2023/06/06 04:11:59;;;;;;;7.42;4.33;;;17.10;99.90;;;;;;1918872;74;21150;-79
2023/06/06 04:14:51;;;;;;;4.97;4.45;;;17.20;99.90;;;;;;1898689;73;21106;-80
2023/06/06 04:17:42;;;;;;;6.15;4.30;;;17.20;99.90;;;;;;1890725;75;21039;-80
2023/06/06 04:20:34;;;;;;;5.28;4.50;;;17.20;99.90;;;;;;1910231;74;21094;-80
2023/06/06 04:23:25;;;;;;;5.72;4.55;;;17.10;99.90;;;;;;1895402;75;21094;-79
2023/06/06 04:29:03;;;;;;;6.67;4.95;;;16.90;99.90;;;;;;1911971;72;39022;-79
2023/06/06 04:34:35;;;;;;;6.50;4.50;;;17.20;99.90;;;;;;1948062;72;22178;-79
2023/06/06 04:37:28;;;;;;;6.87;4.62;;;17.20;99.90;;;;;;1902457;75;21104;-81
2023/06/06 04:43:01;;;;;;;5.15;4.65;;;17.20;99.90;;;;;;1941737;72;22159;-75
2023/06/06 04:45:58;;;;;;;8.50;4.90;;;17.20;99.90;;;;;;1883883;76;21102;-75
2023/06/06 04:51:29;;;;;;;4.70;4.20;;;17.00;99.90;;;;;;1948114;72;22186;-80
2023/06/06 04:54:23;;;;;;;5.05;4.17;;;17.00;99.90;;;;;;1889300;75;21498;-80
2023/06/06 04:57:16;;;;;;;5.33;4.17;;;17.10;99.90;;;;;;1896516;75;21315;-80
2023/06/06 05:00:13;;;;;;;5.90;4.20;;;17.00;99.90;;;;;;1906380;75;21079;-80
2023/06/06 05:03:07;;;;;;;5.90;4.25;;;17.10;99.90;;;;;;1893079;75;21158;-80
2023/06/06 05:05:58;;;;;;;6.05;3.95;;;17.10;99.90;;;;;;1890934;75;21362;-80
2023/06/06 05:08:50;;;;;;;4.37;3.85;;;17.30;99.90;;;;;;1909297;75;21152;-81
2023/06/06 05:14:23;;;;;;;5.95;3.58;;;17.40;99.90;;;;;;1927505;72;22284;-77
2023/06/06 05:17:17;;;;;;;5.97;3.90;;;17.50;99.90;;;;;;1904122;75;21487;-77
2023/06/06 05:20:11;;;;;;;4.47;3.20;;;17.50;99.90;;;;;;1894445;75;21246;-76
2023/06/06 05:23:04;;;;;;;5.83;5.08;;;17.50;99.90;;;;;;1883400;76;21090;-78
2023/06/06 05:25:57;;;;;;;5.03;3.30;;;17.50;99.90;;;;;;1889589;75;21671;-78
2023/06/06 05:31:33;;;;;;;3.83;2.92;;;17.50;99.90;;;;;;1944889;72;22204;-76
2023/06/06 05:34:24;;;;;;;3.75;2.90;;;17.40;99.90;;;;;;1917265;73;21162;-78
2023/06/06 05:43:57;;;;;;;6.15;4.10;;;17.60;99.90;;;;;;1944773;72;22295;-79
2023/06/06 05:49:27;;;;;;;5.85;4.90;;;17.70;99.90;;;;;;1916396;72;22380;-80
2023/06/06 05:55:03;;;;;;;5.55;4.67;;;17.90;99.90;;;;;;1929488;72;22333;-79
2023/06/06 05:57:56;;;;;;;7.65;5.22;;;17.90;99.90;;;;;;1871690;75;21192;-79
2023/06/06 06:03:26;;;;;;;6.50;4.30;;;18.10;99.90;;;;;;1932602;72;22208;-80
2023/06/06 06:06:19;;;;;;;7.00;4.90;;;18.20;99.90;;;;;;1911014;75;21110;-80
2023/06/06 06:09:11;;;;;;;5.28;4.55;;;18.20;99.90;;;;;;1911243;75;21192;-80
2023/06/06 06:14:45;;;;;;;5.90;4.22;;;18.30;99.90;;;;;;1965826;72;22147;-80
2023/06/06 06:17:37;;;;;;;5.87;4.70;;;18.40;99.90;;;;;;1916720;73;21214;-80
2023/06/06 06:23:08;;;;;;;7.42;4.87;;;18.60;99.90;;;;;;1984143;70;22731;-80
2023/06/06 06:26:00;;;;;;;7.60;4.75;;;18.70;99.90;;;;;;1995301;71;21129;-82
2023/06/06 06:28:54;;;;;;;7.37;4.70;;;18.70;99.90;;;;;;1953439;72;21138;-81
2023/06/06 06:34:24;;;;;;;7.50;4.70;;;18.90;99.90;;;;;;1936069;72;22715;-82
2023/06/06 06:37:17;;;;;;;7.00;4.92;;;19.00;99.90;;;;;;1895790;75;21090;-80
2023/06/06 06:40:11;;;;;;;7.08;4.72;;;19.10;99.90;;;;;;1909183;75;21095;-80
2023/06/06 06:45:42;;;;;;;6.50;4.75;;;19.10;99.90;;;;;;1933886;72;22301;-82
2023/06/06 06:48:34;;;;;;;6.45;4.83;;;19.20;99.90;;;;;;1893464;75;21143;-81
2023/06/06 06:51:27;;;;;;;6.97;4.92;;;19.30;99.90;;;;;;1876959;75;21157;-81
2023/06/06 06:54:22;;;;;;;5.40;4.60;;;19.20;99.90;;;;;;1891078;75;21091;-81
2023/06/06 06:57:13;;;;;;;4.83;4.40;;;19.30;99.90;;;;;;1891414;75;21179;-81
2023/06/06 07:00:12;;;;;;;6.90;4.33;;;19.20;99.90;;;;;;1881582;75;21169;-81
2023/06/06 07:03:05;;;;;;;5.20;4.70;;;19.30;99.90;;;;;;1881496;75;21208;-81
2023/06/06 07:08:35;;;;;;;5.62;4.42;;;19.40;99.90;;;;;;1921173;73;22420;-81
2023/06/06 07:11:27;;;;;;;6.15;4.33;;;19.50;99.90;;;;;;1902438;75;21485;-81
2023/06/06 07:14:20;;;;;;;7.05;4.67;;;19.70;99.90;;;;;;1913721;75;21592;-81
2023/06/06 07:19:51;;;;;;;6.50;5.00;;;19.80;99.90;;;;;;1923699;72;22258;-80
2023/06/06 07:22:42;;;;;;;6.50;4.80;;;19.70;99.90;;;;;;1895202;75;21125;-81
2023/06/06 07:25:34;;;;;;;4.95;4.30;;;19.70;99.90;;;;;;1909701;75;21101;-81
2023/06/06 07:28:25;;;;;;;6.72;4.85;;;19.80;99.90;;;;;;1914712;75;21582;-80
2023/06/06 07:31:17;;;;;;;5.22;4.67;;;19.90;99.90;;;;;;1912396;75;21106;-80
2023/06/06 07:34:09;;;;;;;7.00;4.80;;;19.90;99.90;;;;;;1908036;75;21143;-80
2023/06/06 07:37:01;;;;;;;6.72;4.37;;;20.00;99.90;;;;;;1907486;74;21376;-80
2023/06/06 07:39:53;;;;;;;4.70;4.03;;;20.20;99.90;;;;;;1902091;75;21120;-81
2023/06/06 07:45:23;;;;;;;6.87;4.30;;;20.40;99.90;;;;;;1943543;72;22242;-81
2023/06/06 07:50:55;;;;;;;4.10;3.45;;;20.50;99.90;;;;;;1961213;72;22184;-82
2023/06/06 07:56:27;;;;;;;4.50;3.60;;;20.60;99.90;;;;;;1937878;72;22321;-81
2023/06/06 08:02:00;;;;;;;4.97;4.03;;;20.60;99.90;;;;;;1921370;72;22215;-80
2023/06/06 08:04:52;;;;;;;4.30;3.70;;;20.70;99.90;;;;;;1888678;73;21557;-81
2023/06/06 08:10:23;;;;;;;4.25;3.85;;;20.80;99.90;;;;;;1948245;72;22190;-82
2023/06/06 08:15:59;;;;;;;7.20;4.87;;;20.90;99.90;;;;;;1938126;72;27993;-82
2023/06/06 08:18:51;;;;;;;4.65;4.22;;;21.10;99.90;;;;;;1892440;75;21197;-83
2023/06/06 08:24:25;;;;;;;5.95;4.10;;;21.10;99.90;;;;;;1941693;72;22182;-81
2023/06/06 08:27:16;;;;;;;5.42;4.40;;;21.20;99.90;;;;;;1921415;73;21144;-81
2023/06/06 08:30:10;;;;;;;5.62;3.60;;;21.20;99.90;;;;;;1940354;73;21101;-81
2023/06/06 08:33:02;;;;;;;5.80;3.95;;;21.20;99.90;;;;;;1930683;73;21154;-81
2023/06/06 08:35:54;;;;;;;5.37;4.40;;;21.30;99.90;;;;;;1921016;73;21094;-82
2023/06/06 08:41:28;;;;;;;6.53;4.35;;;21.40;99.90;;;;;;1942967;72;22617;-82
2023/06/06 08:49:41;;;;;;;6.12;4.05;;;21.60;99.90;;;;;;1954617;72;22239;-81
2023/06/06 08:52:35;;;;;;;7.87;4.20;;;21.70;99.90;;;;;;1921430;73;21043;-80
2023/06/06 08:58:06;;;;;;;5.05;4.40;;;21.50;99.90;;;;;;1946959;72;22291;-81
2023/06/06 09:01:00;;;;;;;6.83;4.10;;;21.70;99.90;;;;;;1923677;73;21133;-81
2023/06/06 09:06:31;;;;;;;5.78;4.20;;;21.80;99.90;;;;;;1933637;72;22134;-81
2023/06/06 09:09:24;;;;;;;5.15;3.95;;;22.00;99.90;;;;;;1894260;75;21079;-81
2023/06/06 09:14:55;;;;;;;5.70;3.95;;;22.10;99.90;;;;;;1942201;72;22176;-81
2023/06/06 09:20:28;;;;;;;5.42;3.80;;;22.00;99.90;;;;;;1949371;72;22118;-80
2023/06/06 09:23:19;;;;;;;4.70;4.25;;;22.00;99.90;;;;;;1922382;73;21087;-81
2023/06/06 09:26:20;;;;;;;6.25;4.03;;;22.00;99.90;;;;;;1915585;73;21098;-81
2023/06/06 09:34:31;;;;;;;7.58;4.40;;;22.20;99.90;;;;;;1945963;72;22665;-81
2023/06/06 09:40:14;;;;;;;4.50;4.10;;;22.30;99.90;;;;;;1940507;72;22216;-81
2023/06/06 09:45:51;;;;;;;4.50;3.77;;;22.30;99.90;;;;;;1923217;72;22238;-82
2023/06/06 09:48:43;;;;;;;6.87;3.95;;;22.30;99.90;;;;;;1909790;75;21220;-81
2023/06/06 09:51:35;;;;;;;5.60;3.77;;;22.50;99.90;;;;;;1906305;74;21083;-81
2023/06/06 09:59:54;;;;;;;6.47;3.83;;;22.80;99.90;;;;;;1934368;72;22533;-81
2023/06/06 10:02:47;;;;;;;5.60;4.33;;;22.80;99.90;;;;;;1910043;75;21090;-81
2023/06/06 10:08:21;;;;;;;5.30;3.92;;;23.00;99.90;;;;;;1935356;72;22247;-81
2023/06/06 10:11:13;;;;;;;5.60;4.12;;;23.10;99.90;;;;;;1898454;75;21100;-81
2023/06/06 10:14:08;;;;;;;9.30;4.72;;;23.10;99.90;;;;;;1900261;75;21090;-82
2023/06/06 10:19:42;;;;;;;5.65;4.25;;;23.30;99.90;;;;;;1920461;72;22187;-82
2023/06/06 10:22:35;;;;;;;4.40;4.00;;;23.50;99.90;;;;;;1903419;75;21110;-83
2023/06/06 10:25:27;;;;;;;4.70;3.60;;;23.60;99.90;;;;;;1880651;75;21187;-82
2023/06/06 10:31:02;;;;;;;4.25;3.80;;;24.00;99.90;;;;;;1944056;72;22164;-81
2023/06/06 10:36:43;;;;;;;5.45;4.00;;;24.00;99.90;;;;;;1938368;72;22170;-81
2023/06/06 10:39:45;;;;;;;5.12;4.17;;;24.10;99.90;;;;;;1894042;75;21068;-81
2023/06/06 10:45:34;;;;;;;3.72;3.40;;;24.20;99.90;;;;;;1929401;72;22163;-81
2023/06/06 10:48:38;;;;;;;5.55;3.83;;;24.20;99.90;;;;;;1905739;75;21109;-82
2023/06/06 10:51:36;;;;;;;4.12;3.72;;;24.30;99.90;;;;;;1892197;74;21151;-82
2023/06/06 10:59:56;;;;;;;4.00;3.62;;;24.40;99.90;;;;;;1938862;72;22213;-81
2023/06/06 11:02:48;;;;;;;4.50;4.08;;;24.50;99.90;;;;;;1906689;75;21544;-81
2023/06/06 11:06:18;;;;;;;4.47;3.77;;;24.50;99.90;;;;;;1895279;75;21090;-82
2023/06/06 11:12:26;;;;;;;4.92;4.37;;;24.70;99.90;;;;;;1927545;72;28161;-81
2023/06/06 11:15:31;;;;;;;4.65;4.17;;;24.90;99.90;;;;;;1902954;75;21173;-81
2023/06/06 11:21:12;;;;;;;4.75;3.55;;;24.80;99.90;;;;;;1928799;72;22275;-81
2023/06/06 11:24:04;;;;;;;6.85;4.12;;;24.90;99.90;;;;;;1915447;73;21229;-81
2023/06/06 11:29:36;;;;;;;6.45;4.10;;;24.90;99.90;;;;;;1926794;72;22295;-81
2023/06/06 11:35:10;;;;;;;6.15;4.20;;;25.10;99.90;;;;;;1942331;72;22265;-81
2023/06/06 11:38:03;;;;;;;5.12;3.87;;;25.10;99.90;;;;;;1928133;73;21172;-81
2023/06/06 11:40:55;;;;;;;6.08;3.90;;;25.30;99.90;;;;;;1933711;73;21609;-82
2023/06/06 11:46:35;;;;;;;7.67;4.30;;;25.50;99.90;;;;;;1936110;72;22690;-81
2023/06/06 11:52:07;;;;;;;5.12;4.00;;;25.70;99.90;;;;;;1956649;72;22781;-82
2023/06/06 11:55:04;;;;;;;8.00;4.28;;;25.70;99.90;;;;;;1906215;74;21100;-82
2023/06/06 12:00:39;;;;;;;4.40;3.80;;;25.80;99.90;;;;;;1937727;72;22908;-81
2023/06/06 12:03:33;;;;;;;5.83;4.03;;;25.70;99.90;;;;;;1897871;75;21157;-82
2023/06/06 12:06:25;;;;;;;7.03;3.83;;;25.90;99.90;;;;;;1881750;75;21114;-82
2023/06/06 12:09:19;;;;;;;3.90;3.50;;;26.10;99.90;;;;;;1896705;75;21095;-81
2023/06/06 12:14:57;;;;;;;4.90;3.77;;;26.40;99.90;;;;;;1951472;72;22242;-81
2023/06/06 12:17:48;;;;;;;5.30;3.80;;;26.40;99.90;;;;;;1929039;73;21228;-82
2023/06/06 12:23:28;;;;;;;8.53;4.00;;;26.40;99.90;;;;;;1927931;72;22409;-83
2023/06/06 12:28:59;;;;;;;8.33;3.85;;;26.50;99.90;;;;;;1936993;72;22134;-81
2023/06/06 12:34:44;;;;;;;5.62;3.83;;;26.60;99.90;;;;;;1959625;72;22317;-81
2023/06/06 12:37:41;;;;;;;3.95;3.20;;;26.60;99.90;;;;;;1939473;73;21131;-81
2023/06/06 12:40:34;;;;;;;4.85;3.87;;;26.60;99.90;;;;;;1916907;75;21151;-81
2023/06/06 12:43:27;;;;;;;3.92;3.55;;;26.70;99.90;;;;;;1916672;75;21187;-81
2023/06/06 12:46:20;;;;;;;3.83;3.50;;;26.70;99.90;;;;;;1916959;75;21530;-81
2023/06/06 12:49:12;;;;;;;3.60;3.30;;;26.80;99.90;;;;;;1916933;75;21546;-81
2023/06/06 12:52:03;;;;;;;3.80;3.33;;;26.90;99.90;;;;;;1917013;75;21676;-81
2023/06/06 12:54:55;;;;;;;3.85;3.47;;;27.00;99.90;;;;;;1916773;75;21094;-81
2023/06/06 12:57:47;;;;;;;4.60;3.30;;;27.00;99.90;;;;;;1917147;75;21171;-81
2023/06/06 13:00:39;;;;;;;4.62;3.20;;;26.90;99.90;;;;;;1917017;75;21079;-81
2023/06/06 13:03:31;;;;;;;4.28;3.30;;;27.00;99.90;;;;;;1916998;75;21149;-82
2023/06/06 13:06:23;;;;;;;5.00;3.37;;;27.00;99.90;;;;;;1920664;73;21043;-82
2023/06/06 13:09:18;;;;;;;3.67;3.12;;;27.10;99.90;;;;;;1928872;73;21106;-82
2023/06/06 13:12:10;;;;;;;3.35;3.05;;;27.10;99.90;;;;;;1933183;73;21178;-82
2023/06/06 13:15:02;;;;;;;4.45;3.58;;;27.20;99.90;;;;;;1939159;73;21094;-82
2023/06/06 13:17:54;;;;;;;5.35;3.50;;;27.20;99.90;;;;;;1933406;74;21101;-82
2023/06/06 13:20:46;;;;;;;4.05;3.65;;;27.20;99.90;;;;;;1918125;73;21126;-82
2023/06/06 13:23:37;;;;;;;4.10;3.70;;;27.30;99.90;;;;;;1932126;73;21178;-81
2023/06/06 13:26:29;;;;;;;5.95;4.03;;;27.20;99.90;;;;;;1916666;75;21055;-82
2023/06/06 13:29:20;;;;;;;4.15;3.40;;;27.20;99.90;;;;;;1916674;75;21176;-82
2023/06/06 13:32:13;;;;;;;3.77;3.47;;;27.40;99.90;;;;;;1916847;75;21063;-82
2023/06/06 13:35:05;;;;;;;3.77;3.40;;;27.40;99.90;;;;;;1916949;74;21223;-83
2023/06/06 13:37:57;;;;;;;4.50;3.30;;;27.50;99.90;;;;;;1916783;75;21167;-83
2023/06/06 13:40:49;;;;;;;5.67;3.72;;;27.60;99.90;;;;;;1916816;75;21058;-82
2023/06/06 13:43:42;;;;;;;4.12;3.37;;;27.80;99.90;;;;;;1904463;75;21668;-83
2023/06/06 13:46:34;;;;;;;3.47;3.17;;;28.00;99.90;;;;;;1904132;75;21142;-81
2023/06/06 13:49:27;;;;;;;4.17;3.58;;;28.00;99.90;;;;;;1903977;75;21103;-81
2023/06/06 13:52:19;;;;;;;4.58;3.50;;;28.10;99.90;;;;;;1903837;75;21078;-82
2023/06/06 13:55:11;;;;;;;4.60;3.72;;;28.20;99.40;;;;;;1916040;75;21126;-82
2023/06/06 13:58:10;;;;;;;3.45;3.17;;;28.50;99.60;;;;;;1903473;75;21341;-81
2023/06/06 14:01:18;;;;;;;4.62;3.58;;;28.60;97.80;;;;;;1916170;75;21742;-81
2023/06/06 14:04:14;;;;;;;3.72;3.30;;;28.80;97.40;;;;;;1916900;74;21065;-81
2023/06/06 14:07:09;;;;;;;3.80;3.40;;;28.90;96.90;;;;;;1926953;74;21121;-81
2023/06/06 14:10:01;;;;;;;5.65;3.60;;;29.10;96.20;;;;;;1904189;75;21134;-82
2023/06/06 14:12:57;;;;;;;5.47;3.83;;;29.20;95.30;;;;;;1903826;75;21140;-81
2023/06/06 14:15:49;;;;;;;3.75;3.40;;;29.40;94.50;;;;;;1903923;75;21071;-81
2023/06/06 14:18:54;;;;;;;5.62;3.22;;;29.40;93.30;;;;;;1921892;74;21150;-81
2023/06/06 14:21:57;;;;;;;3.58;3.25;;;29.40;93.60;;;;;;1903984;75;21192;-82
2023/06/06 14:24:40;;;;;;;6.08;3.47;;;29.50;94.00;;;;;;1938479;73;21128;-81
2023/06/06 14:27:32;;;;;;;5.62;3.33;;;30.00;92.70;;;;;;1921047;73;21573;-81
2023/06/06 14:30:24;;;;;;;4.45;3.62;;;30.00;90.70;;;;;;1914531;74;21158;-82
2023/06/06 14:33:17;;;;;;;4.28;3.20;;;30.00;90.10;;;;;;1919396;74;21176;-82
2023/06/06 14:36:10;;;;;;;5.30;3.52;;;30.00;90.60;;;;;;1910619;74;21099;-81
2023/06/06 14:39:02;;;;;;;3.83;2.90;;;30.00;89.70;;;;;;1926825;74;21699;-81
2023/06/06 14:41:53;;;;;;;4.00;3.50;;;30.20;87.90;;;;;;1917677;74;21511;-81
2023/06/06 14:44:48;;;;;;;3.72;3.42;;;30.30;86.10;;;;;;1915766;74;21550;-82
2023/06/06 14:47:40;;;;;;;6.72;3.60;;;30.30;87.80;;;;;;1911771;74;21156;-82
2023/06/06 14:50:32;;;;;;;5.92;3.12;;;30.40;89.10;;;;;;1909494;74;21550;-81
2023/06/06 14:53:24;;;;;;;3.80;3.42;;;30.80;87.30;;;;;;1907004;74;21128;-82
2023/06/06 14:56:16;;;;;;;3.60;3.30;;;30.80;86.80;;;;;;1922373;74;21217;-81
2023/06/06 14:59:07;;;;;;;4.62;3.55;;;30.80;85.00;;;;;;1919803;74;21110;-81
2023/06/06 15:02:00;;;;;;;3.77;3.42;;;30.80;84.40;;;;;;1924061;74;21063;-81
2023/06/06 15:04:52;;;;;;;4.05;3.65;;;30.80;85.10;;;;;;1919101;74;21091;-82
2023/06/06 15:10:32;;;;;;;4.12;3.45;;;31.50;82.60;;;;;;1958392;72;22203;-81
2023/06/06 15:13:23;;;;;;;3.95;3.25;;;31.50;82.70;;;;;;1916692;75;21649;-81
2023/06/06 15:16:15;;;;;;;4.83;3.55;;;31.50;80.50;;;;;;1916578;75;21151;-81
2023/06/06 15:19:07;;;;;;;3.83;3.50;;;31.30;81.50;;;;;;1916633;75;21098;-81
2023/06/06 15:22:01;;;;;;;3.50;3.20;;;31.50;82.10;;;;;;1917078;75;21516;-82
2023/06/06 15:24:52;;;;;;;3.72;3.30;;;32.30;79.70;;;;;;1916649;75;21225;-81
2023/06/06 15:27:44;;;;;;;3.60;3.30;;;31.90;79.30;;;;;;1916704;75;21106;-81
2023/06/06 15:30:36;;;;;;;7.10;3.55;;;31.30;80.00;;;;;;1916866;75;21169;-81
2023/06/06 15:33:28;;;;;;;4.20;3.80;;;31.20;80.60;;;;;;1916787;75;21120;-81
2023/06/06 15:39:04;;;;;;;3.27;3.00;;;31.50;80.00;;;;;;1951670;72;22235;-81
2023/06/06 15:41:56;;;;;;;5.20;3.37;;;31.30;79.50;;;;;;1896630;74;21152;-80
2023/06/06 15:44:51;;;;;;;3.60;3.30;;;31.50;79.70;;;;;;1898531;75;21195;-80
2023/06/06 15:47:40;;;;;;;4.35;3.50;;;31.80;77.90;;;;;;1883904;75;21171;-80
2023/06/06 15:50:31;;;;;;;4.25;3.55;;;31.60;79.20;;;;;;1906174;75;21634;-82
2023/06/06 15:53:23;;;;;;;3.70;3.40;;;30.90;79.10;;;;;;1887254;75;21153;-81
2023/06/06 15:56:15;;;;;;;4.50;3.50;;;30.70;79.20;;;;;;1896507;75;21534;-81
2023/06/06 15:59:07;;;;;;;5.50;3.58;;;30.50;80.30;;;;;;1899167;75;21134;-80
2023/06/06 16:01:58;;;;;;;3.80;3.50;;;31.00;80.00;;;;;;1884382;75;21132;-81
2023/06/06 16:04:50;;;;;;;4.37;3.70;;;31.00;79.30;;;;;;1902521;75;21090;-81
2023/06/06 16:07:44;;;;;;;4.50;3.67;;;30.30;80.10;;;;;;1894997;75;21204;-80
2023/06/06 16:10:37;;;;;;;7.30;3.33;;;30.10;80.20;;;;;;1900879;75;21161;-81
2023/06/06 16:13:31;;;;;;;3.92;3.47;;;29.90;81.60;;;;;;1895618;75;21051;-81
2023/06/06 16:16:23;;;;;;;4.83;3.72;;;29.40;82.40;;;;;;1894603;75;21107;-81
2023/06/06 16:19:15;;;;;;;3.80;3.50;;;29.30;82.70;;;;;;1892623;75;21567;-81
2023/06/06 16:22:07;;;;;;;4.03;3.70;;;29.80;82.10;;;;;;1902581;75;21056;-80
2023/06/06 16:24:58;;;;;;;3.80;3.50;;;29.90;81.60;;;;;;1903221;75;21139;-81
2023/06/06 16:27:50;;;;;;;4.25;3.22;;;29.80;82.10;;;;;;1905886;75;21195;-81
2023/06/06 16:30:44;;;;;;;5.42;3.80;;;29.70;83.00;;;;;;1906336;75;21196;-80
2023/06/06 16:33:36;;;;;;;3.90;3.52;;;29.40;82.10;;;;;;1884004;76;21170;-80
2023/06/06 16:39:07;;;;;;;4.62;4.00;;;28.70;84.40;;;;;;1943817;72;22160;-80
2023/06/06 16:41:59;;;;;;;4.33;3.77;;;28.80;85.50;;;;;;1916646;75;21082;-81
2023/06/06 16:44:50;;;;;;;6.12;3.55;;;28.90;85.70;;;;;;1916856;75;21149;-81
2023/06/06 16:47:42;;;;;;;4.45;3.37;;;29.10;85.50;;;;;;1930035;73;21055;-80
2023/06/06 16:50:34;;;;;;;6.37;5.50;;;29.00;85.50;;;;;;1919214;73;21534;-80
2023/06/06 16:53:25;;;;;;;5.87;3.77;;;28.90;86.00;;;;;;1939094;73;21565;-80
2023/06/06 16:56:17;;;;;;;4.28;3.87;;;28.80;86.10;;;;;;1916442;75;21162;-80
2023/06/06 16:59:10;;;;;;;4.55;3.42;;;29.10;85.90;;;;;;1916321;75;21176;-80
2023/06/06 17:02:02;;;;;;;3.80;3.50;;;29.50;84.80;;;;;;1916512;75;21105;-80
2023/06/06 17:04:56;;;;;;;3.95;3.55;;;29.70;84.80;;;;;;1916533;75;21094;-80
2023/06/06 17:07:47;;;;;;;3.77;3.45;;;29.90;84.00;;;;;;1927200;73;21124;-80
2023/06/06 17:16:39;;;;;;;4.67;3.60;;;30.30;82.30;;;;;;1921491;72;22216;-79
2023/06/06 17:19:31;;;;;;;3.98;3.37;;;30.70;82.40;;;;;;1902138;75;21098;-79
2023/06/06 17:25:03;;;;;;;7.20;3.85;;;30.10;81.30;;;;;;1928150;72;22200;-80
2023/06/06 17:30:34;;;;;;;3.50;3.20;;;29.60;81.50;;;;;;1927270;72;22204;-78
2023/06/06 17:36:06;;;;;;;4.28;3.30;;;29.30;80.80;;;;;;1961795;72;22161;-79
2023/06/06 17:38:59;;;;;;;6.22;3.75;;;29.20;80.60;;;;;;1927568;73;21109;-79
2023/06/06 17:41:51;;;;;;;4.50;3.40;;;29.00;80.90;;;;;;1917650;73;21110;-80
2023/06/06 17:44:43;;;;;;;6.60;3.77;;;28.40;81.70;;;;;;1928094;73;21535;-79
2023/06/06 17:47:35;;;;;;;5.03;3.42;;;28.20;82.80;;;;;;1923364;73;21143;-79
2023/06/06 17:50:26;;;;;;;5.15;3.52;;;28.20;83.70;;;;;;1918405;73;21220;-79
2023/06/06 17:55:58;;;;;;;3.87;3.58;;;28.30;85.70;;;;;;1947102;72;22103;-78
2023/06/06 17:58:52;;;;;;;5.00;3.85;;;28.30;84.50;;;;;;1949654;72;21157;-78
2023/06/06 18:04:22;;;;;;;4.62;3.35;;;28.20;83.20;;;;;;1928427;72;22146;-79
2023/06/06 18:07:14;;;;;;;4.35;3.40;;;28.20;83.90;;;;;;1886144;75;21150;-79
2023/06/06 18:10:06;;;;;;;6.90;3.77;;;27.90;84.70;;;;;;1890892;75;21161;-78
2023/06/06 18:12:57;;;;;;;3.98;3.58;;;28.00;84.90;;;;;;1887124;75;21190;-79
2023/06/06 18:15:49;;;;;;;3.50;3.20;;;27.90;85.60;;;;;;1886580;75;21164;-79
2023/06/06 18:18:41;;;;;;;3.90;3.40;;;27.80;84.60;;;;;;1886607;75;21103;-79
2023/06/06 18:21:33;;;;;;;4.87;3.52;;;27.60;84.50;;;;;;1888821;75;21550;-79
2023/06/06 18:24:25;;;;;;;3.72;3.25;;;27.40;84.80;;;;;;1848713;77;21113;-79
2023/06/06 18:29:55;;;;;;;5.95;3.65;;;27.50;84.40;;;;;;1935796;72;22188;-80
2023/06/06 18:35:27;;;;;;;4.05;3.27;;;27.20;83.90;;;;;;1942990;72;22231;-80
2023/06/06 18:40:56;;;;;;;3.80;3.10;;;26.90;85.00;;;;;;1926933;72;22218;-80
2023/06/06 18:43:48;;;;;;;3.00;2.80;;;26.80;85.70;;;;;;1891066;75;21102;-80
2023/06/06 18:49:19;;;;;;;4.62;3.33;;;26.60;85.70;;;;;;1933325;72;22182;-80
2023/06/06 18:54:49;;;;;;;5.33;3.58;;;26.50;87.10;;;;;;1936920;72;22534;-80
2023/06/06 19:00:20;;;;;;;4.62;3.45;;;26.20;88.80;;;;;;1914173;72;22165;-80
2023/06/06 19:03:12;;;;;;;4.08;3.45;;;26.00;89.00;;;;;;1898820;73;21141;-80
2023/06/06 19:08:44;;;;;;;3.92;3.52;;;25.80;90.00;;;;;;1930552;72;22168;-80
2023/06/06 19:14:16;;;;;;;3.77;3.20;;;25.70;90.40;;;;;;1927573;72;22244;-79
2023/06/06 19:19:49;;;;;;;4.37;3.15;;;25.50;91.40;;;;;;1947313;72;22146;-80